sensor_id;sensor_type;location;lat;lon;timestamp;P1;durP1;ratioP1;P2;durP2;ratioP2
4222;SDS011;2125;51.436;14.138;2022-07-23T00:00:56;7.97;;;6.10;;
4222;SDS011;2125;51.436;14.138;2022-07-23T00:03:24;7.50;;;6.10;;
4222;SDS011;2125;51.436;14.138;2022-07-23T00:05:51;11.63;;;6.43;;
4222;SDS011;2125;51.436;14.138;2022-07-23T00:08:19;8.10;;;5.83;;
4222;SDS011;2125;51.436;14.138;2022-07-23T00:10:46;6.97;;;6.07;;
4222;SDS011;2125;51.436;14.138;2022-07-23T00:13:12;6.10;;;5.13;;
4222;SDS011;2125;51.436;14.138;2022-07-23T00:15:39;8.90;;;5.60;;
4222;SDS011;2125;51.436;14.138;2022-07-23T00:18:05;6.53;;;5.60;;
4222;SDS011;2125;51.436;14.138;2022-07-23T00:20:33;5.77;;;4.87;;
4222;SDS011;2125;51.436;14.138;2022-07-23T00:23:00;6.80;;;5.40;;
4222;SDS011;2125;51.436;14.138;2022-07-23T00:25:27;6.10;;;5.50;;
4222;SDS011;2125;51.436;14.138;2022-07-23T00:27:53;8.40;;;6.10;;
4222;SDS011;2125;51.436;14.138;2022-07-23T00:30:20;11.00;;;6.30;;
4222;SDS011;2125;51.436;14.138;2022-07-23T00:32:47;10.37;;;5.67;;
4222;SDS011;2125;51.436;14.138;2022-07-23T00:35:15;8.63;;;6.07;;
4222;SDS011;2125;51.436;14.138;2022-07-23T00:37:43;8.47;;;5.90;;
4222;SDS011;2125;51.436;14.138;2022-07-23T00:40:11;8.73;;;5.37;;
4222;SDS011;2125;51.436;14.138;2022-07-23T00:42:38;7.03;;;6.00;;
4222;SDS011;2125;51.436;14.138;2022-07-23T00:45:05;6.70;;;6.00;;
4222;SDS011;2125;51.436;14.138;2022-07-23T00:47:33;11.80;;;5.90;;
4222;SDS011;2125;51.436;14.138;2022-07-23T00:50:00;12.90;;;6.57;;
4222;SDS011;2125;51.436;14.138;2022-07-23T00:52:31;8.47;;;6.33;;
4222;SDS011;2125;51.436;14.138;2022-07-23T00:55:01;8.40;;;6.60;;
4222;SDS011;2125;51.436;14.138;2022-07-23T00:57:29;9.13;;;6.60;;
4222;SDS011;2125;51.436;14.138;2022-07-23T00:59:56;9.40;;;6.30;;
4222;SDS011;2125;51.436;14.138;2022-07-23T01:02:23;7.60;;;6.40;;
4222;SDS011;2125;51.436;14.138;2022-07-23T01:04:49;11.07;;;6.90;;
4222;SDS011;2125;51.436;14.138;2022-07-23T01:10:14;6.90;;;5.73;;
4222;SDS011;2125;51.436;14.138;2022-07-23T01:13:00;6.73;;;5.83;;
4222;SDS011;2125;51.436;14.138;2022-07-23T01:15:28;13.77;;;5.80;;
4222;SDS011;2125;51.436;14.138;2022-07-23T01:17:55;7.90;;;5.83;;
4222;SDS011;2125;51.436;14.138;2022-07-23T01:20:22;7.93;;;5.53;;
4222;SDS011;2125;51.436;14.138;2022-07-23T01:22:50;9.73;;;5.93;;
4222;SDS011;2125;51.436;14.138;2022-07-23T01:25:17;6.67;;;5.37;;
4222;SDS011;2125;51.436;14.138;2022-07-23T01:27:44;7.27;;;5.60;;
4222;SDS011;2125;51.436;14.138;2022-07-23T01:30:17;8.00;;;5.60;;
4222;SDS011;2125;51.436;14.138;2022-07-23T01:32:44;6.60;;;5.17;;
4222;SDS011;2125;51.436;14.138;2022-07-23T01:35:11;9.03;;;6.03;;
4222;SDS011;2125;51.436;14.138;2022-07-23T01:37:38;6.00;;;5.40;;
4222;SDS011;2125;51.436;14.138;2022-07-23T01:40:06;7.60;;;6.07;;
4222;SDS011;2125;51.436;14.138;2022-07-23T01:42:36;9.43;;;5.13;;
4222;SDS011;2125;51.436;14.138;2022-07-23T01:45:04;9.40;;;5.80;;
4222;SDS011;2125;51.436;14.138;2022-07-23T01:47:31;6.13;;;5.53;;
4222;SDS011;2125;51.436;14.138;2022-07-23T01:49:58;6.03;;;5.40;;
4222;SDS011;2125;51.436;14.138;2022-07-23T01:52:24;6.33;;;5.60;;
4222;SDS011;2125;51.436;14.138;2022-07-23T01:55:00;7.73;;;5.77;;
4222;SDS011;2125;51.436;14.138;2022-07-23T01:57:28;7.63;;;5.30;;
4222;SDS011;2125;51.436;14.138;2022-07-23T02:00:03;7.27;;;5.60;;
4222;SDS011;2125;51.436;14.138;2022-07-23T02:02:33;12.57;;;6.40;;
4222;SDS011;2125;51.436;14.138;2022-07-23T02:04:59;6.23;;;5.63;;
4222;SDS011;2125;51.436;14.138;2022-07-23T02:07:26;6.47;;;5.73;;
4222;SDS011;2125;51.436;14.138;2022-07-23T02:09:53;8.70;;;5.60;;
4222;SDS011;2125;51.436;14.138;2022-07-23T02:12:27;6.77;;;5.73;;
4222;SDS011;2125;51.436;14.138;2022-07-23T02:14:55;6.80;;;5.40;;
4222;SDS011;2125;51.436;14.138;2022-07-23T02:17:21;6.80;;;5.63;;
4222;SDS011;2125;51.436;14.138;2022-07-23T02:19:48;9.90;;;5.37;;
4222;SDS011;2125;51.436;14.138;2022-07-23T02:22:22;9.43;;;5.50;;
4222;SDS011;2125;51.436;14.138;2022-07-23T02:24:49;8.03;;;5.77;;
4222;SDS011;2125;51.436;14.138;2022-07-23T02:27:17;9.17;;;5.50;;
4222;SDS011;2125;51.436;14.138;2022-07-23T02:29:45;6.47;;;5.60;;
4222;SDS011;2125;51.436;14.138;2022-07-23T02:32:12;12.27;;;5.30;;
4222;SDS011;2125;51.436;14.138;2022-07-23T02:34:38;6.20;;;5.20;;
4222;SDS011;2125;51.436;14.138;2022-07-23T02:37:05;9.03;;;5.10;;
4222;SDS011;2125;51.436;14.138;2022-07-23T02:39:33;8.10;;;4.87;;
4222;SDS011;2125;51.436;14.138;2022-07-23T02:42:00;6.90;;;5.30;;
4222;SDS011;2125;51.436;14.138;2022-07-23T02:44:26;6.93;;;5.47;;
4222;SDS011;2125;51.436;14.138;2022-07-23T02:46:54;6.73;;;4.93;;
4222;SDS011;2125;51.436;14.138;2022-07-23T02:49:21;7.50;;;5.40;;
4222;SDS011;2125;51.436;14.138;2022-07-23T02:51:50;8.93;;;5.87;;
4222;SDS011;2125;51.436;14.138;2022-07-23T02:54:20;6.37;;;5.43;;
4222;SDS011;2125;51.436;14.138;2022-07-23T02:56:47;9.60;;;5.60;;
4222;SDS011;2125;51.436;14.138;2022-07-23T02:59:15;10.37;;;5.40;;
4222;SDS011;2125;51.436;14.138;2022-07-23T03:01:42;5.90;;;5.23;;
4222;SDS011;2125;51.436;14.138;2022-07-23T03:04:10;9.10;;;5.33;;
4222;SDS011;2125;51.436;14.138;2022-07-23T03:06:37;9.43;;;5.37;;
4222;SDS011;2125;51.436;14.138;2022-07-23T03:09:07;6.17;;;5.10;;
4222;SDS011;2125;51.436;14.138;2022-07-23T03:11:36;7.73;;;5.23;;
4222;SDS011;2125;51.436;14.138;2022-07-23T03:14:03;6.83;;;5.23;;
4222;SDS011;2125;51.436;14.138;2022-07-23T03:16:30;10.73;;;5.43;;
4222;SDS011;2125;51.436;14.138;2022-07-23T03:19:01;9.40;;;5.10;;
4222;SDS011;2125;51.436;14.138;2022-07-23T03:21:32;6.00;;;4.80;;
4222;SDS011;2125;51.436;14.138;2022-07-23T03:23:59;6.90;;;4.97;;
4222;SDS011;2125;51.436;14.138;2022-07-23T03:26:25;6.70;;;5.30;;
4222;SDS011;2125;51.436;14.138;2022-07-23T03:28:52;6.47;;;4.87;;
4222;SDS011;2125;51.436;14.138;2022-07-23T03:31:19;6.70;;;5.07;;
4222;SDS011;2125;51.436;14.138;2022-07-23T03:33:48;7.57;;;5.13;;
4222;SDS011;2125;51.436;14.138;2022-07-23T03:36:14;8.87;;;5.13;;
4222;SDS011;2125;51.436;14.138;2022-07-23T03:38:42;10.73;;;5.40;;
4222;SDS011;2125;51.436;14.138;2022-07-23T03:41:32;6.60;;;5.47;;
4222;SDS011;2125;51.436;14.138;2022-07-23T03:43:58;9.90;;;6.00;;
4222;SDS011;2125;51.436;14.138;2022-07-23T03:46:26;8.60;;;5.60;;
4222;SDS011;2125;51.436;14.138;2022-07-23T03:48:52;7.53;;;5.70;;
4222;SDS011;2125;51.436;14.138;2022-07-23T03:51:19;6.50;;;5.60;;
4222;SDS011;2125;51.436;14.138;2022-07-23T03:53:50;7.03;;;5.37;;
4222;SDS011;2125;51.436;14.138;2022-07-23T03:56:16;9.87;;;5.30;;
4222;SDS011;2125;51.436;14.138;2022-07-23T03:58:43;8.23;;;5.70;;
4222;SDS011;2125;51.436;14.138;2022-07-23T04:01:10;13.33;;;5.83;;
4222;SDS011;2125;51.436;14.138;2022-07-23T04:03:43;13.10;;;6.07;;
4222;SDS011;2125;51.436;14.138;2022-07-23T04:06:11;7.80;;;5.80;;
4222;SDS011;2125;51.436;14.138;2022-07-23T04:09:02;7.20;;;5.43;;
4222;SDS011;2125;51.436;14.138;2022-07-23T04:11:29;10.83;;;5.67;;
4222;SDS011;2125;51.436;14.138;2022-07-23T04:14:03;6.63;;;5.23;;
4222;SDS011;2125;51.436;14.138;2022-07-23T04:16:30;12.50;;;5.83;;
4222;SDS011;2125;51.436;14.138;2022-07-23T04:18:57;7.80;;;5.80;;
4222;SDS011;2125;51.436;14.138;2022-07-23T04:21:24;7.00;;;5.37;;
4222;SDS011;2125;51.436;14.138;2022-07-23T04:23:50;8.23;;;5.60;;
4222;SDS011;2125;51.436;14.138;2022-07-23T04:26:21;8.00;;;5.13;;
4222;SDS011;2125;51.436;14.138;2022-07-23T04:28:51;6.13;;;5.33;;
4222;SDS011;2125;51.436;14.138;2022-07-23T04:31:18;8.13;;;5.83;;
4222;SDS011;2125;51.436;14.138;2022-07-23T04:33:47;6.97;;;5.53;;
4222;SDS011;2125;51.436;14.138;2022-07-23T04:36:13;6.50;;;5.17;;
4222;SDS011;2125;51.436;14.138;2022-07-23T04:38:45;6.23;;;5.43;;
4222;SDS011;2125;51.436;14.138;2022-07-23T04:41:12;8.03;;;5.60;;
4222;SDS011;2125;51.436;14.138;2022-07-23T04:43:40;6.50;;;5.60;;
4222;SDS011;2125;51.436;14.138;2022-07-23T04:46:06;8.00;;;5.23;;
4222;SDS011;2125;51.436;14.138;2022-07-23T04:48:35;7.20;;;6.10;;
4222;SDS011;2125;51.436;14.138;2022-07-23T04:51:04;10.13;;;5.80;;
4222;SDS011;2125;51.436;14.138;2022-07-23T04:53:31;6.53;;;5.43;;
4222;SDS011;2125;51.436;14.138;2022-07-23T04:56:05;8.80;;;5.60;;
4222;SDS011;2125;51.436;14.138;2022-07-23T04:58:34;11.80;;;5.60;;
4222;SDS011;2125;51.436;14.138;2022-07-23T05:01:02;5.87;;;5.20;;
4222;SDS011;2125;51.436;14.138;2022-07-23T05:03:35;6.80;;;5.17;;
4222;SDS011;2125;51.436;14.138;2022-07-23T05:06:02;7.77;;;5.40;;
4222;SDS011;2125;51.436;14.138;2022-07-23T05:08:30;10.00;;;5.30;;
4222;SDS011;2125;51.436;14.138;2022-07-23T05:11:00;15.23;;;5.07;;
4222;SDS011;2125;51.436;14.138;2022-07-23T05:13:27;8.37;;;5.40;;
4222;SDS011;2125;51.436;14.138;2022-07-23T05:15:59;6.23;;;4.73;;
4222;SDS011;2125;51.436;14.138;2022-07-23T05:18:27;6.60;;;5.50;;
4222;SDS011;2125;51.436;14.138;2022-07-23T05:21:03;7.73;;;5.00;;
4222;SDS011;2125;51.436;14.138;2022-07-23T05:23:30;6.23;;;4.83;;
4222;SDS011;2125;51.436;14.138;2022-07-23T05:25:57;8.23;;;5.40;;
4222;SDS011;2125;51.436;14.138;2022-07-23T05:28:24;8.93;;;4.90;;
4222;SDS011;2125;51.436;14.138;2022-07-23T05:30:54;10.93;;;5.40;;
4222;SDS011;2125;51.436;14.138;2022-07-23T05:33:31;6.20;;;5.60;;
4222;SDS011;2125;51.436;14.138;2022-07-23T05:35:59;9.67;;;5.60;;
4222;SDS011;2125;51.436;14.138;2022-07-23T05:38:29;10.90;;;5.30;;
4222;SDS011;2125;51.436;14.138;2022-07-23T05:40:57;7.63;;;5.70;;
4222;SDS011;2125;51.436;14.138;2022-07-23T05:43:24;7.00;;;5.37;;
4222;SDS011;2125;51.436;14.138;2022-07-23T05:46:00;8.77;;;5.00;;
4222;SDS011;2125;51.436;14.138;2022-07-23T05:48:26;6.17;;;5.47;;
4222;SDS011;2125;51.436;14.138;2022-07-23T05:50:56;6.40;;;5.07;;
4222;SDS011;2125;51.436;14.138;2022-07-23T05:53:25;6.07;;;5.20;;
4222;SDS011;2125;51.436;14.138;2022-07-23T05:56:11;7.17;;;5.37;;
4222;SDS011;2125;51.436;14.138;2022-07-23T05:58:38;6.90;;;5.80;;
4222;SDS011;2125;51.436;14.138;2022-07-23T06:01:11;5.63;;;5.00;;
4222;SDS011;2125;51.436;14.138;2022-07-23T06:03:39;6.77;;;5.30;;
4222;SDS011;2125;51.436;14.138;2022-07-23T06:06:14;6.20;;;5.40;;
4222;SDS011;2125;51.436;14.138;2022-07-23T06:08:41;5.67;;;5.00;;
4222;SDS011;2125;51.436;14.138;2022-07-23T06:11:08;7.33;;;5.13;;
4222;SDS011;2125;51.436;14.138;2022-07-23T06:13:34;7.13;;;5.17;;
4222;SDS011;2125;51.436;14.138;2022-07-23T06:16:01;5.93;;;5.03;;
4222;SDS011;2125;51.436;14.138;2022-07-23T06:22:01;5.20;;;3.60;;
4222;SDS011;2125;51.436;14.138;2022-07-23T06:24:34;10.30;;;6.20;;
4222;SDS011;2125;51.436;14.138;2022-07-23T06:27:06;6.50;;;5.17;;
4222;SDS011;2125;51.436;14.138;2022-07-23T06:29:43;6.80;;;5.53;;
4222;SDS011;2125;51.436;14.138;2022-07-23T06:32:15;8.07;;;5.53;;
4222;SDS011;2125;51.436;14.138;2022-07-23T06:34:42;8.70;;;5.37;;
4222;SDS011;2125;51.436;14.138;2022-07-23T06:37:10;6.97;;;5.07;;
4222;SDS011;2125;51.436;14.138;2022-07-23T06:39:36;5.57;;;3.80;;
4222;SDS011;2125;51.436;14.138;2022-07-23T06:42:03;8.03;;;5.93;;
4222;SDS011;2125;51.436;14.138;2022-07-23T06:44:30;9.80;;;4.87;;
4222;SDS011;2125;51.436;14.138;2022-07-23T06:46:57;11.47;;;6.93;;
4222;SDS011;2125;51.436;14.138;2022-07-23T06:49:26;8.80;;;6.20;;
4222;SDS011;2125;51.436;14.138;2022-07-23T06:51:53;7.83;;;6.20;;
4222;SDS011;2125;51.436;14.138;2022-07-23T06:54:21;9.27;;;6.30;;
4222;SDS011;2125;51.436;14.138;2022-07-23T06:56:48;8.57;;;5.60;;
4222;SDS011;2125;51.436;14.138;2022-07-23T06:59:16;10.43;;;6.03;;
4222;SDS011;2125;51.436;14.138;2022-07-23T07:01:43;8.77;;;6.27;;
4222;SDS011;2125;51.436;14.138;2022-07-23T07:04:12;12.07;;;7.00;;
4222;SDS011;2125;51.436;14.138;2022-07-23T07:06:46;14.57;;;6.70;;
4222;SDS011;2125;51.436;14.138;2022-07-23T07:09:14;9.70;;;5.87;;
4222;SDS011;2125;51.436;14.138;2022-07-23T07:11:43;11.23;;;7.70;;
4222;SDS011;2125;51.436;14.138;2022-07-23T07:14:11;14.73;;;6.97;;
4222;SDS011;2125;51.436;14.138;2022-07-23T07:16:45;10.33;;;6.20;;
4222;SDS011;2125;51.436;14.138;2022-07-23T07:19:11;24.97;;;6.97;;
4222;SDS011;2125;51.436;14.138;2022-07-23T07:21:38;13.00;;;7.07;;
4222;SDS011;2125;51.436;14.138;2022-07-23T07:24:05;9.60;;;6.00;;
4222;SDS011;2125;51.436;14.138;2022-07-23T07:26:32;11.53;;;5.83;;
4222;SDS011;2125;51.436;14.138;2022-07-23T07:29:00;10.80;;;5.90;;
4222;SDS011;2125;51.436;14.138;2022-07-23T07:31:27;8.23;;;6.87;;
4222;SDS011;2125;51.436;14.138;2022-07-23T07:34:00;8.43;;;6.00;;
4222;SDS011;2125;51.436;14.138;2022-07-23T07:39:54;9.90;;;6.37;;
4222;SDS011;2125;51.436;14.138;2022-07-23T07:42:21;9.67;;;7.07;;
4222;SDS011;2125;51.436;14.138;2022-07-23T07:44:59;7.23;;;5.80;;
4222;SDS011;2125;51.436;14.138;2022-07-23T07:47:26;9.50;;;5.63;;
4222;SDS011;2125;51.436;14.138;2022-07-23T07:49:59;9.30;;;5.90;;
4222;SDS011;2125;51.436;14.138;2022-07-23T07:52:28;10.30;;;6.40;;
4222;SDS011;2125;51.436;14.138;2022-07-23T07:57:42;8.10;;;5.87;;
4222;SDS011;2125;51.436;14.138;2022-07-23T08:00:10;11.00;;;5.83;;
4222;SDS011;2125;51.436;14.138;2022-07-23T08:02:45;11.73;;;6.00;;
4222;SDS011;2125;51.436;14.138;2022-07-23T08:08:18;11.33;;;5.83;;
4222;SDS011;2125;51.436;14.138;2022-07-23T08:10:45;10.40;;;5.77;;
4222;SDS011;2125;51.436;14.138;2022-07-23T08:13:12;8.10;;;6.33;;
4222;SDS011;2125;51.436;14.138;2022-07-23T08:18:27;8.33;;;4.67;;
4222;SDS011;2125;51.436;14.138;2022-07-23T08:20:53;10.00;;;5.50;;
4222;SDS011;2125;51.436;14.138;2022-07-23T08:23:20;8.53;;;5.47;;
4222;SDS011;2125;51.436;14.138;2022-07-23T08:25:47;7.93;;;5.10;;
4222;SDS011;2125;51.436;14.138;2022-07-23T08:28:14;7.50;;;5.60;;
4222;SDS011;2125;51.436;14.138;2022-07-23T08:30:42;6.60;;;5.20;;
4222;SDS011;2125;51.436;14.138;2022-07-23T08:33:11;6.27;;;4.77;;
4222;SDS011;2125;51.436;14.138;2022-07-23T08:35:40;6.23;;;5.30;;
4222;SDS011;2125;51.436;14.138;2022-07-23T08:38:09;7.83;;;5.30;;
4222;SDS011;2125;51.436;14.138;2022-07-23T08:40:37;21.57;;;5.47;;
4222;SDS011;2125;51.436;14.138;2022-07-23T08:43:05;8.60;;;5.40;;
4222;SDS011;2125;51.436;14.138;2022-07-23T08:45:35;9.03;;;5.50;;
4222;SDS011;2125;51.436;14.138;2022-07-23T08:48:04;7.07;;;5.10;;
4222;SDS011;2125;51.436;14.138;2022-07-23T08:50:34;5.10;;;4.40;;
4222;SDS011;2125;51.436;14.138;2022-07-23T08:53:03;7.00;;;5.63;;
4222;SDS011;2125;51.436;14.138;2022-07-23T08:55:32;7.73;;;5.33;;
4222;SDS011;2125;51.436;14.138;2022-07-23T08:57:59;9.80;;;5.53;;
4222;SDS011;2125;51.436;14.138;2022-07-23T09:00:26;8.63;;;5.20;;
4222;SDS011;2125;51.436;14.138;2022-07-23T09:02:53;8.73;;;5.37;;
4222;SDS011;2125;51.436;14.138;2022-07-23T09:05:19;7.27;;;5.77;;
4222;SDS011;2125;51.436;14.138;2022-07-23T09:18:11;7.27;;;4.83;;
4222;SDS011;2125;51.436;14.138;2022-07-23T09:20:42;6.03;;;5.43;;
4222;SDS011;2125;51.436;14.138;2022-07-23T09:23:09;10.77;;;5.27;;
4222;SDS011;2125;51.436;14.138;2022-07-23T09:25:36;9.30;;;5.80;;
4222;SDS011;2125;51.436;14.138;2022-07-23T09:28:03;7.53;;;5.30;;
4222;SDS011;2125;51.436;14.138;2022-07-23T09:30:32;8.90;;;5.70;;
4222;SDS011;2125;51.436;14.138;2022-07-23T09:33:04;7.20;;;5.40;;
4222;SDS011;2125;51.436;14.138;2022-07-23T09:35:47;8.70;;;5.60;;
4222;SDS011;2125;51.436;14.138;2022-07-23T09:38:15;7.37;;;5.50;;
4222;SDS011;2125;51.436;14.138;2022-07-23T09:40:43;6.63;;;6.03;;
4222;SDS011;2125;51.436;14.138;2022-07-23T09:43:11;9.80;;;5.90;;
4222;SDS011;2125;51.436;14.138;2022-07-23T09:45:38;7.17;;;5.77;;
4222;SDS011;2125;51.436;14.138;2022-07-23T09:48:12;7.47;;;5.70;;
4222;SDS011;2125;51.436;14.138;2022-07-23T09:50:39;7.00;;;5.83;;
4222;SDS011;2125;51.436;14.138;2022-07-23T09:53:24;9.87;;;5.97;;
4222;SDS011;2125;51.436;14.138;2022-07-23T09:55:56;8.20;;;6.10;;
4222;SDS011;2125;51.436;14.138;2022-07-23T09:58:27;6.67;;;5.93;;
4222;SDS011;2125;51.436;14.138;2022-07-23T10:00:55;6.10;;;5.50;;
4222;SDS011;2125;51.436;14.138;2022-07-23T10:03:25;7.43;;;5.40;;
4222;SDS011;2125;51.436;14.138;2022-07-23T10:05:52;8.53;;;5.40;;
4222;SDS011;2125;51.436;14.138;2022-07-23T10:08:19;6.80;;;6.10;;
4222;SDS011;2125;51.436;14.138;2022-07-23T10:10:50;7.00;;;5.93;;
4222;SDS011;2125;51.436;14.138;2022-07-23T10:13:19;7.73;;;5.43;;
4222;SDS011;2125;51.436;14.138;2022-07-23T10:16:03;10.70;;;5.67;;
4222;SDS011;2125;51.436;14.138;2022-07-23T10:18:30;8.60;;;6.10;;
4222;SDS011;2125;51.436;14.138;2022-07-23T10:20:59;7.07;;;4.80;;
4222;SDS011;2125;51.436;14.138;2022-07-23T10:23:30;7.87;;;5.77;;
4222;SDS011;2125;51.436;14.138;2022-07-23T10:26:09;8.97;;;6.03;;
4222;SDS011;2125;51.436;14.138;2022-07-23T10:28:43;7.00;;;5.83;;
4222;SDS011;2125;51.436;14.138;2022-07-23T10:31:25;7.07;;;6.37;;
4222;SDS011;2125;51.436;14.138;2022-07-23T10:34:07;8.80;;;6.57;;
4222;SDS011;2125;51.436;14.138;2022-07-23T10:36:56;8.80;;;6.20;;
4222;SDS011;2125;51.436;14.138;2022-07-23T10:39:33;7.50;;;6.10;;
4222;SDS011;2125;51.436;14.138;2022-07-23T10:42:10;8.50;;;6.17;;
4222;SDS011;2125;51.436;14.138;2022-07-23T10:44:38;11.73;;;6.37;;
4222;SDS011;2125;51.436;14.138;2022-07-23T10:47:07;10.70;;;7.27;;
4222;SDS011;2125;51.436;14.138;2022-07-23T10:49:41;8.93;;;7.07;;
4222;SDS011;2125;51.436;14.138;2022-07-23T10:52:24;8.90;;;7.23;;
4222;SDS011;2125;51.436;14.138;2022-07-23T10:54:53;13.03;;;7.83;;
4222;SDS011;2125;51.436;14.138;2022-07-23T10:57:22;8.90;;;7.00;;
4222;SDS011;2125;51.436;14.138;2022-07-23T11:02:59;9.47;;;6.80;;
4222;SDS011;2125;51.436;14.138;2022-07-23T11:05:38;7.20;;;5.90;;
4222;SDS011;2125;51.436;14.138;2022-07-23T11:08:11;6.97;;;5.70;;
4222;SDS011;2125;51.436;14.138;2022-07-23T11:10:44;5.90;;;4.73;;
4222;SDS011;2125;51.436;14.138;2022-07-23T11:16:16;5.77;;;4.17;;
4222;SDS011;2125;51.436;14.138;2022-07-23T11:21:42;6.40;;;5.17;;
4222;SDS011;2125;51.436;14.138;2022-07-23T11:24:10;7.07;;;6.00;;
4222;SDS011;2125;51.436;14.138;2022-07-23T11:26:49;4.70;;;4.20;;
4222;SDS011;2125;51.436;14.138;2022-07-23T11:32:33;7.60;;;6.20;;
4222;SDS011;2125;51.436;14.138;2022-07-23T11:38:12;7.50;;;6.20;;
4222;SDS011;2125;51.436;14.138;2022-07-23T11:43:31;7.10;;;5.90;;
4222;SDS011;2125;51.436;14.138;2022-07-23T11:46:00;8.33;;;5.97;;
4222;SDS011;2125;51.436;14.138;2022-07-23T11:48:33;11.73;;;5.80;;
4222;SDS011;2125;51.436;14.138;2022-07-23T11:51:02;6.17;;;5.10;;
4222;SDS011;2125;51.436;14.138;2022-07-23T11:53:30;7.67;;;5.03;;
4222;SDS011;2125;51.436;14.138;2022-07-23T11:56:03;6.40;;;5.13;;
4222;SDS011;2125;51.436;14.138;2022-07-23T11:58:31;9.10;;;6.90;;
4222;SDS011;2125;51.436;14.138;2022-07-23T12:01:00;8.10;;;5.47;;
4222;SDS011;2125;51.436;14.138;2022-07-23T12:03:27;8.73;;;6.73;;
4222;SDS011;2125;51.436;14.138;2022-07-23T12:05:57;6.73;;;5.27;;
4222;SDS011;2125;51.436;14.138;2022-07-23T12:08:24;6.13;;;4.20;;
4222;SDS011;2125;51.436;14.138;2022-07-23T12:10:51;7.03;;;6.30;;
4222;SDS011;2125;51.436;14.138;2022-07-23T12:13:19;7.30;;;5.60;;
4222;SDS011;2125;51.436;14.138;2022-07-23T12:15:48;9.83;;;5.80;;
4222;SDS011;2125;51.436;14.138;2022-07-23T12:18:19;8.83;;;5.90;;
4222;SDS011;2125;51.436;14.138;2022-07-23T12:20:47;7.70;;;6.30;;
4222;SDS011;2125;51.436;14.138;2022-07-23T12:23:16;12.37;;;6.80;;
4222;SDS011;2125;51.436;14.138;2022-07-23T12:25:44;10.30;;;6.80;;
4222;SDS011;2125;51.436;14.138;2022-07-23T12:28:12;9.80;;;6.30;;
4222;SDS011;2125;51.436;14.138;2022-07-23T12:30:41;8.20;;;6.37;;
4222;SDS011;2125;51.436;14.138;2022-07-23T12:33:11;7.87;;;6.00;;
4222;SDS011;2125;51.436;14.138;2022-07-23T12:35:40;10.47;;;6.93;;
4222;SDS011;2125;51.436;14.138;2022-07-23T12:38:09;10.17;;;7.23;;
4222;SDS011;2125;51.436;14.138;2022-07-23T12:40:41;8.03;;;5.77;;
4222;SDS011;2125;51.436;14.138;2022-07-23T12:43:10;10.60;;;7.23;;
4222;SDS011;2125;51.436;14.138;2022-07-23T12:45:41;10.97;;;7.17;;
4222;SDS011;2125;51.436;14.138;2022-07-23T12:48:15;9.50;;;7.47;;
4222;SDS011;2125;51.436;14.138;2022-07-23T12:50:52;12.30;;;7.83;;
4222;SDS011;2125;51.436;14.138;2022-07-23T12:53:22;11.70;;;7.63;;
4222;SDS011;2125;51.436;14.138;2022-07-23T12:55:50;9.80;;;8.03;;
4222;SDS011;2125;51.436;14.138;2022-07-23T12:58:23;11.17;;;7.90;;
4222;SDS011;2125;51.436;14.138;2022-07-23T13:00:51;10.80;;;5.73;;
4222;SDS011;2125;51.436;14.138;2022-07-23T13:03:29;8.93;;;7.10;;
4222;SDS011;2125;51.436;14.138;2022-07-23T13:06:02;10.50;;;7.73;;
4222;SDS011;2125;51.436;14.138;2022-07-23T13:08:31;11.23;;;7.73;;
4222;SDS011;2125;51.436;14.138;2022-07-23T13:10:59;11.47;;;7.50;;
4222;SDS011;2125;51.436;14.138;2022-07-23T13:13:26;7.90;;;6.27;;
4222;SDS011;2125;51.436;14.138;2022-07-23T13:15:54;7.77;;;6.60;;
4222;SDS011;2125;51.436;14.138;2022-07-23T13:18:21;8.87;;;6.90;;
4222;SDS011;2125;51.436;14.138;2022-07-23T13:20:48;8.10;;;6.87;;
4222;SDS011;2125;51.436;14.138;2022-07-23T13:23:17;9.27;;;6.57;;
4222;SDS011;2125;51.436;14.138;2022-07-23T13:25:44;9.13;;;5.90;;
4222;SDS011;2125;51.436;14.138;2022-07-23T13:28:12;7.60;;;6.20;;
4222;SDS011;2125;51.436;14.138;2022-07-23T13:30:39;7.17;;;5.67;;
4222;SDS011;2125;51.436;14.138;2022-07-23T13:33:06;6.43;;;5.40;;
4222;SDS011;2125;51.436;14.138;2022-07-23T13:35:33;8.77;;;5.63;;
4222;SDS011;2125;51.436;14.138;2022-07-23T13:38:01;9.83;;;6.07;;
4222;SDS011;2125;51.436;14.138;2022-07-23T13:40:29;7.60;;;5.30;;
4222;SDS011;2125;51.436;14.138;2022-07-23T13:42:56;8.17;;;5.70;;
4222;SDS011;2125;51.436;14.138;2022-07-23T13:45:23;6.93;;;5.80;;
4222;SDS011;2125;51.436;14.138;2022-07-23T13:47:49;10.07;;;5.90;;
4222;SDS011;2125;51.436;14.138;2022-07-23T13:50:16;6.00;;;5.40;;
4222;SDS011;2125;51.436;14.138;2022-07-23T13:52:42;8.30;;;6.10;;
4222;SDS011;2125;51.436;14.138;2022-07-23T13:55:09;5.80;;;4.63;;
4222;SDS011;2125;51.436;14.138;2022-07-23T13:57:38;5.50;;;4.87;;
4222;SDS011;2125;51.436;14.138;2022-07-23T14:00:05;7.50;;;5.23;;
4222;SDS011;2125;51.436;14.138;2022-07-23T14:02:35;6.83;;;5.10;;
4222;SDS011;2125;51.436;14.138;2022-07-23T14:05:03;7.17;;;5.10;;
4222;SDS011;2125;51.436;14.138;2022-07-23T14:07:30;6.60;;;5.13;;
4222;SDS011;2125;51.436;14.138;2022-07-23T14:09:57;5.60;;;5.00;;
4222;SDS011;2125;51.436;14.138;2022-07-23T14:12:23;7.60;;;4.67;;
4222;SDS011;2125;51.436;14.138;2022-07-23T14:14:51;10.40;;;4.70;;
4222;SDS011;2125;51.436;14.138;2022-07-23T14:17:18;7.70;;;4.80;;
4222;SDS011;2125;51.436;14.138;2022-07-23T14:19:44;5.47;;;4.63;;
4222;SDS011;2125;51.436;14.138;2022-07-23T14:22:11;5.90;;;4.63;;
4222;SDS011;2125;51.436;14.138;2022-07-23T14:24:37;7.03;;;4.43;;
4222;SDS011;2125;51.436;14.138;2022-07-23T14:27:04;6.87;;;3.77;;
4222;SDS011;2125;51.436;14.138;2022-07-23T14:29:31;6.57;;;4.37;;
4222;SDS011;2125;51.436;14.138;2022-07-23T14:31:59;6.00;;;4.70;;
4222;SDS011;2125;51.436;14.138;2022-07-23T14:34:26;7.77;;;4.63;;
4222;SDS011;2125;51.436;14.138;2022-07-23T14:36:53;8.10;;;5.00;;
4222;SDS011;2125;51.436;14.138;2022-07-23T14:39:19;6.50;;;5.40;;
4222;SDS011;2125;51.436;14.138;2022-07-23T14:41:46;6.67;;;4.47;;
4222;SDS011;2125;51.436;14.138;2022-07-23T14:44:13;7.57;;;5.10;;
4222;SDS011;2125;51.436;14.138;2022-07-23T14:46:39;6.43;;;5.00;;
4222;SDS011;2125;51.436;14.138;2022-07-23T14:49:08;8.17;;;5.13;;
4222;SDS011;2125;51.436;14.138;2022-07-23T14:51:34;9.63;;;5.13;;
4222;SDS011;2125;51.436;14.138;2022-07-23T14:54:01;6.10;;;5.20;;
4222;SDS011;2125;51.436;14.138;2022-07-23T14:56:28;6.00;;;5.13;;
4222;SDS011;2125;51.436;14.138;2022-07-23T14:58:54;7.50;;;5.00;;
4222;SDS011;2125;51.436;14.138;2022-07-23T15:01:21;7.70;;;5.73;;
4222;SDS011;2125;51.436;14.138;2022-07-23T15:03:48;8.43;;;5.70;;
4222;SDS011;2125;51.436;14.138;2022-07-23T15:06:16;7.20;;;5.73;;
4222;SDS011;2125;51.436;14.138;2022-07-23T15:08:43;6.90;;;5.50;;
4222;SDS011;2125;51.436;14.138;2022-07-23T15:11:10;6.53;;;5.23;;
4222;SDS011;2125;51.436;14.138;2022-07-23T15:13:36;8.33;;;5.73;;
4222;SDS011;2125;51.436;14.138;2022-07-23T15:16:04;7.60;;;5.40;;
4222;SDS011;2125;51.436;14.138;2022-07-23T15:18:31;7.83;;;6.30;;
4222;SDS011;2125;51.436;14.138;2022-07-23T15:20:58;7.80;;;5.57;;
4222;SDS011;2125;51.436;14.138;2022-07-23T15:23:27;7.03;;;5.37;;
4222;SDS011;2125;51.436;14.138;2022-07-23T15:25:54;7.13;;;5.53;;
4222;SDS011;2125;51.436;14.138;2022-07-23T15:28:20;13.10;;;6.20;;
4222;SDS011;2125;51.436;14.138;2022-07-23T15:30:47;7.57;;;5.30;;
4222;SDS011;2125;51.436;14.138;2022-07-23T15:33:14;7.10;;;5.53;;
4222;SDS011;2125;51.436;14.138;2022-07-23T15:35:41;6.63;;;5.40;;
4222;SDS011;2125;51.436;14.138;2022-07-23T15:38:07;7.00;;;5.40;;
4222;SDS011;2125;51.436;14.138;2022-07-23T15:40:35;6.50;;;5.47;;
4222;SDS011;2125;51.436;14.138;2022-07-23T15:43:02;8.03;;;5.83;;
4222;SDS011;2125;51.436;14.138;2022-07-23T15:45:29;7.13;;;5.83;;
4222;SDS011;2125;51.436;14.138;2022-07-23T15:47:56;9.47;;;5.70;;
4222;SDS011;2125;51.436;14.138;2022-07-23T15:50:23;7.33;;;5.33;;
4222;SDS011;2125;51.436;14.138;2022-07-23T15:52:49;8.00;;;5.97;;
4222;SDS011;2125;51.436;14.138;2022-07-23T15:55:16;11.13;;;6.27;;